createdAt,value
2017-09-13T00:04:17.827Z,68.20
2017-09-13T00:09:20.621Z,67.50
2017-09-13T00:14:23.387Z,67.30
2017-09-13T00:19:29.611Z,67.30
2017-09-13T00:24:33.104Z,67.10
2017-09-13T00:29:36.629Z,67.10
2017-09-13T00:34:40.107Z,66.90
2017-09-13T00:39:43.133Z,67.30
2017-09-13T00:55:01.432Z,66.80
2017-09-13T01:00:08.034Z,66.40
2017-09-13T01:05:11.513Z,66.80
2017-09-13T01:10:15.878Z,66.80
2017-09-13T01:15:20.206Z,67.00
2017-09-13T01:20:23.651Z,66.80
2017-09-13T01:25:28.014Z,67.00
2017-09-13T01:30:32.366Z,66.80
2017-09-13T01:40:44.340Z,67.00
2017-09-13T01:45:47.764Z,66.60
2017-09-13T01:50:50.498Z,66.80
2017-09-13T01:55:55.353Z,67.00
2017-09-13T02:00:58.398Z,66.90
2017-09-13T02:06:02.951Z,67.00
2017-09-13T02:11:07.338Z,67.30
2017-09-13T02:16:13.495Z,67.00
2017-09-13T02:21:17.205Z,67.20
2017-09-13T02:26:21.614Z,67.10
2017-09-13T02:31:24.716Z,67.20
2017-09-13T02:36:29.195Z,67.30
2017-09-13T02:41:32.617Z,67.10
2017-09-13T02:46:37.742Z,67.40
2017-09-13T02:56:48.063Z,67.50
2017-09-13T03:01:51.614Z,67.60
2017-09-13T03:06:55.103Z,67.60
2017-09-13T03:11:57.897Z,67.40
2017-09-13T03:22:08.491Z,67.90
2017-09-13T03:27:11.894Z,67.80
2017-09-13T03:32:16.301Z,67.90
2017-09-13T03:37:19.979Z,67.80
2017-09-13T03:42:23.970Z,67.80
2017-09-13T03:47:26.875Z,67.80
2017-09-13T03:52:31.171Z,68.20
2017-09-13T03:57:34.586Z,68.40
2017-09-13T04:02:38.151Z,68.00
2017-09-13T04:07:41.589Z,68.10
2017-09-13T04:17:52.773Z,68.10
2017-09-13T04:22:55.712Z,68.30
2017-09-13T04:28:01.867Z,68.40
2017-09-13T04:33:08.059Z,68.30
2017-09-13T04:38:11.532Z,68.50
2017-09-13T04:43:14.998Z,68.40
2017-09-13T04:48:18.304Z,68.40
2017-09-13T04:53:21.291Z,68.50
2017-09-13T04:58:24.308Z,68.50
2017-09-13T05:08:34.694Z,68.80
2017-09-13T05:13:37.354Z,69.10
2017-09-13T05:29:02.266Z,69.00
2017-09-13T05:34:05.710Z,69.60
2017-09-13T05:39:09.075Z,69.10
2017-09-13T05:44:13.334Z,69.50
2017-09-13T05:49:19.402Z,69.70
2017-09-13T05:54:22.801Z,70.00
2017-09-13T05:59:26.200Z,69.40
2017-09-13T06:04:29.799Z,69.10
2017-09-13T06:14:39.519Z,68.80
2017-09-13T06:19:45.598Z,68.80
2017-09-13T06:24:48.268Z,68.30
2017-09-13T06:29:50.916Z,68.20
2017-09-13T06:34:53.910Z,68.40
2017-09-13T06:39:57.364Z,68.70
2017-09-13T06:45:00.282Z,68.60
2017-09-13T06:50:04.396Z,69.30
2017-09-13T06:55:07.236Z,69.20
2017-09-13T07:00:10.236Z,69.20
2017-09-13T07:05:13.922Z,70.00
2017-09-13T07:10:17.334Z,69.90
2017-09-13T07:15:21.656Z,69.90
2017-09-13T07:20:27.622Z,69.70
2017-09-13T07:25:31.957Z,69.20
2017-09-13T07:30:36.284Z,69.10
2017-09-13T07:35:39.693Z,68.90
2017-09-13T07:40:42.590Z,68.60
2017-09-13T07:45:45.361Z,68.60
2017-09-13T07:50:48.017Z,68.00
2017-09-13T07:55:51.199Z,65.20
2017-09-13T08:06:00.635Z,61.40
2017-09-13T08:11:05.658Z,57.60
2017-09-13T08:16:08.594Z,57.60
2017-09-13T08:21:12.815Z,57.40
2017-09-13T08:26:15.480Z,57.40
2017-09-13T08:31:19.142Z,57.60
2017-09-13T08:36:22.490Z,57.60
2017-09-13T08:41:26.664Z,58.40
2017-09-13T08:46:29.648Z,58.50
2017-09-13T08:51:34.915Z,61.30
2017-09-13T08:56:39.186Z,61.00
2017-09-13T09:01:42.706Z,60.80
2017-09-13T09:06:45.593Z,62.20
2017-09-13T09:11:48.310Z,62.40
2017-09-13T09:16:51.035Z,63.10
2017-09-13T09:21:53.675Z,63.40
2017-09-13T09:26:56.701Z,63.80
2017-09-13T09:32:00.452Z,63.50
2017-09-13T09:37:03.843Z,63.50
2017-09-13T09:42:08.106Z,63.90
2017-09-13T09:47:10.815Z,63.80
2017-09-13T09:52:15.012Z,63.70
2017-09-13T09:57:20.082Z,63.70
2017-09-13T10:02:24.351Z,63.50
2017-09-13T10:07:28.646Z,63.90
2017-09-13T10:12:32.019Z,64.70
2017-09-13T10:17:35.487Z,64.80
2017-09-13T10:22:38.886Z,64.80
2017-09-13T10:27:41.538Z,64.80
2017-09-13T10:32:45.398Z,65.00
2017-09-13T10:37:48.351Z,65.10
2017-09-13T10:42:51.690Z,64.40
2017-09-13T10:47:56.010Z,64.30
2017-09-13T10:52:58.919Z,64.20
2017-09-13T10:58:02.470Z,64.20
2017-09-13T11:03:06.754Z,63.80
2017-09-13T11:08:10.553Z,63.00
2017-09-13T11:13:14.128Z,62.90
2017-09-13T11:18:17.143Z,62.80
2017-09-13T11:23:21.641Z,62.60
2017-09-13T11:28:25.924Z,62.80
2017-09-13T11:33:29.314Z,63.50
2017-09-13T11:38:32.993Z,63.60
2017-09-13T11:48:42.510Z,63.10
2017-09-13T11:53:48.600Z,62.30
2017-09-13T11:58:51.784Z,62.30
2017-09-13T12:03:55.073Z,62.50
2017-09-13T12:08:58.746Z,62.20
2017-09-13T12:14:01.914Z,62.20
2017-09-13T12:24:13.222Z,60.50
2017-09-13T12:29:18.328Z,60.30
2017-09-13T12:39:27.951Z,60.60
2017-09-13T12:49:37.552Z,59.60
2017-09-13T12:54:41.950Z,59.70
2017-09-13T12:59:44.944Z,58.90
2017-09-13T13:04:49.284Z,59.10
2017-09-13T13:09:52.774Z,59.30
2017-09-13T13:14:55.764Z,60.20
2017-09-13T13:19:59.202Z,58.70
2017-09-13T13:25:03.544Z,59.30
2017-09-13T13:30:06.478Z,58.70
2017-09-13T13:35:09.162Z,58.40
2017-09-13T13:40:13.552Z,58.30
2017-09-13T13:45:18.456Z,58.50
2017-09-13T13:50:21.493Z,58.40
2017-09-13T13:55:24.932Z,59.70
2017-09-13T14:05:34.445Z,58.80
2017-09-13T14:10:38.784Z,58.90
2017-09-13T14:15:41.675Z,59.10
2017-09-13T14:20:45.091Z,58.50
2017-09-13T14:25:48.624Z,58.30
2017-09-13T14:30:52.116Z,58.60
2017-09-13T14:35:56.458Z,58.60
2017-09-13T14:40:59.605Z,59.20
2017-09-13T14:46:02.259Z,59.20
2017-09-13T14:51:05.702Z,59.20
2017-09-13T14:56:10.003Z,59.30
2017-09-13T15:01:13.859Z,59.60
2017-09-13T15:06:16.497Z,59.80
2017-09-13T15:11:19.308Z,60.00
2017-09-13T15:16:22.276Z,60.10
2017-09-13T15:21:25.689Z,60.40
2017-09-13T15:26:28.584Z,60.40
2017-09-13T15:31:31.323Z,60.70
2017-09-13T15:36:34.207Z,61.00
2017-09-13T15:41:37.255Z,61.30
2017-09-13T15:46:40.782Z,61.50
2017-09-13T15:51:44.291Z,61.80
2017-09-13T15:56:47.302Z,61.90
2017-09-13T16:01:50.821Z,62.00
2017-09-13T16:06:53.597Z,62.40
2017-09-13T16:11:57.022Z,62.40
2017-09-13T16:17:01.387Z,62.60
2017-09-13T16:22:05.528Z,63.20
2017-09-13T16:27:11.714Z,63.00
2017-09-13T16:32:15.106Z,63.30
2017-09-13T16:37:18.526Z,63.70
2017-09-13T16:42:21.554Z,63.90
2017-09-13T16:47:26.762Z,64.10
2017-09-13T16:52:32.970Z,64.40
2017-09-13T16:57:36.112Z,64.40
2017-09-13T17:02:39.839Z,64.70
2017-09-13T17:07:43.295Z,64.60
2017-09-13T17:12:45.963Z,64.70
2017-09-13T17:17:49.349Z,64.90
2017-09-13T17:22:52.078Z,64.90
2017-09-13T17:27:55.908Z,65.50
2017-09-13T17:32:59.413Z,65.50
2017-09-13T17:38:02.324Z,65.80
2017-09-13T17:43:06.444Z,66.00
2017-09-13T17:48:09.806Z,66.30
2017-09-13T17:53:12.480Z,66.70
2017-09-13T17:58:15.897Z,66.80
2017-09-13T18:03:19.985Z,66.90
2017-09-13T18:08:23.302Z,67.10
2017-09-13T18:13:27.785Z,67.20
2017-09-13T18:18:30.816Z,67.70
2017-09-13T18:23:34.253Z,68.20
2017-09-13T18:28:37.183Z,68.10
2017-09-13T18:33:40.164Z,68.10
2017-09-13T18:38:42.922Z,68.00
2017-09-13T18:43:45.690Z,68.10
2017-09-13T18:48:48.674Z,68.50
2017-09-13T18:53:52.878Z,68.20
2017-09-13T18:58:55.694Z,68.20
2017-09-13T19:03:58.440Z,68.40
2017-09-13T19:09:01.218Z,68.40
2017-09-13T19:14:04.859Z,68.40
2017-09-13T19:19:07.806Z,68.30
2017-09-13T19:24:10.610Z,68.10
2017-09-13T19:29:13.693Z,68.00
2017-09-13T19:34:16.842Z,67.80
2017-09-13T19:39:20.129Z,67.80
2017-09-13T19:44:22.819Z,67.70
2017-09-13T19:49:27.253Z,67.50
2017-09-13T19:54:31.485Z,67.30
2017-09-13T19:59:34.976Z,67.30
2017-09-13T20:04:37.809Z,68.20
2017-09-13T20:09:41.468Z,68.60
2017-09-13T20:14:44.627Z,69.30
2017-09-13T20:19:47.608Z,68.70
2017-09-13T20:24:50.363Z,69.00
2017-09-13T20:29:53.729Z,69.20
2017-09-13T20:34:56.909Z,69.20
2017-09-13T20:40:00.217Z,69.40
2017-09-13T20:45:03.257Z,69.40
2017-09-13T20:50:06.745Z,69.50
2017-09-13T20:55:09.902Z,69.70
2017-09-13T21:05:19.775Z,70.40
2017-09-13T21:10:23.175Z,70.70
2017-09-13T21:15:26.602Z,70.60
2017-09-13T21:20:29.613Z,70.70
2017-09-13T21:25:32.579Z,71.00
2017-09-13T21:30:35.367Z,71.00
2017-09-13T21:35:38.365Z,71.00
2017-09-13T21:40:42.840Z,71.00
2017-09-13T21:45:45.785Z,71.20
2017-09-13T21:50:48.782Z,71.10
2017-09-13T21:55:52.471Z,71.70
2017-09-13T22:00:55.588Z,71.60
2017-09-13T22:05:58.343Z,71.90
2017-09-13T22:11:01.088Z,71.80
2017-09-13T22:16:04.596Z,71.70
2017-09-13T22:21:07.527Z,71.70
2017-09-13T22:26:10.483Z,72.20
2017-09-13T22:31:14.008Z,71.70
2017-09-13T22:36:17.764Z,72.20
2017-09-13T22:41:22.097Z,72.10
2017-09-13T22:46:24.763Z,72.00
2017-09-13T22:51:27.667Z,71.90
2017-09-13T22:56:30.671Z,72.20
2017-09-13T23:01:33.525Z,72.20
2017-09-13T23:11:38.918Z,72.20
2017-09-13T23:16:41.931Z,72.40
2017-09-13T23:21:44.656Z,72.50
2017-09-13T23:26:48.163Z,72.40
2017-09-13T23:31:51.612Z,72.50
2017-09-13T23:36:55.965Z,73.00
2017-09-13T23:41:59.525Z,72.60
2017-09-13T23:47:02.309Z,73.10
2017-09-13T23:52:05.232Z,72.70
2017-09-13T23:57:08.961Z,72.20
